Time;durP1;ratioP1;P1;durP2;ratioP2;P2;SDS_P1;SDS_P2;PMS_P1;PMS_P2;Temp;Humidity;BMP_temperature;BMP_pressure;BME280_temperature;BME280_humidity;BME280_pressure;Samples;Min_cycle;Max_cycle;Signal;HPM_P1;HPM_P2
2021/12/20 00:00:25;;;;;;;;;;;;;;;;;;5049489;28;19932;-68
2021/12/20 00:02:52;;;;;;;;;;;;;;;;;;5047227;28;20302;-68
2021/12/20 00:05:20;;;;;;;;;;;;;;;;;;5048629;28;19928;-66
2021/12/20 00:07:47;;;;;;;;;;;;;;;;;;5049213;28;19925;-67
2021/12/20 00:10:14;;;;;;;;;;;;;;;;;;5044180;28;19925;-67
2021/12/20 00:12:41;;;;;;;;;;;;;;;;;;5048469;28;20374;-67
2021/12/20 00:15:08;;;;;;;;;;;;;;;;;;5047038;28;19924;-68
2021/12/20 00:17:35;;;;;;;;;;;;;;;;;;5051955;28;19925;-67
2021/12/20 00:20:02;;;;;;;;;;;;;;;;;;5046453;28;19947;-68
2021/12/20 00:22:29;;;;;;;;;;;;;;;;;;5049021;28;19974;-68
2021/12/20 00:24:56;;;;;;;;;;;;;;;;;;5047302;28;19925;-66
2021/12/20 00:27:23;;;;;;;;;;;;;;;;;;5050786;28;19925;-67
2021/12/20 00:29:50;;;;;;;;;;;;;;;;;;5048058;28;19940;-66
2021/12/20 00:32:17;;;;;;;;;;;;;;;;;;5052339;28;19935;-66
2021/12/20 00:34:44;;;;;;;;;;;;;;;;;;5051201;28;19928;-66
2021/12/20 00:42:36;;;;;;;;;;;;;;;;;;5052742;28;19919;-66
2021/12/20 00:45:03;;;;;;;;;;;;;;;;;;5051260;28;19932;-66
2021/12/20 00:47:30;;;;;;;;;;;;;;;;;;5048109;28;19928;-66
2021/12/20 00:49:57;;;;;;;;;;;;;;;;;;5050801;28;19964;-67
2021/12/20 00:52:25;;;;;;;;;;;;;;;;;;5051081;28;20012;-68
2021/12/20 00:54:51;;;;;;;;;;;;;;;;;;5045130;28;20078;-68
2021/12/20 00:57:18;;;;;;;;;;;;;;;;;;5088774;22;19930;-66
2021/12/20 00:59:45;;;;;;;;;;;;;;;;;;5101880;28;19924;-65
2021/12/20 01:02:12;;;;;;;;;;;;;;;;;;5111974;27;20301;-66
2021/12/20 01:04:39;;;;;;;;;;;;;;;;;;5116032;27;20376;-66
2021/12/20 01:07:06;;;;;;;;;;;;;;;;;;5104612;28;19924;-66
2021/12/20 01:09:33;;;;;;;;;;;;;;;;;;5106155;28;19923;-67
2021/12/20 01:12:04;;;;;;;;;;;;;;;;;;5104550;28;19981;-67
2021/12/20 01:14:33;;;;;;;;;;;;;;;;;;5100833;28;19924;-67
2021/12/20 01:17:04;;;;;;;;;;;;;;;;;;5105985;27;19928;-67
2021/12/20 01:19:31;;;;;;;;;;;;;;;;;;5103909;28;19934;-67
2021/12/20 01:21:58;;;;;;;;;;;;;;;;;;5098977;28;20289;-66
2021/12/20 01:24:25;;;;;;;;;;;;;;;;;;5100857;28;19934;-66
2021/12/20 01:26:52;;;;;;;;;;;;;;;;;;5103764;28;19928;-66
2021/12/20 01:29:19;;;;;;;;;;;;;;;;;;5100956;28;20328;-66
2021/12/20 01:31:45;;;;;;;;;;;;;;;;;;5104401;28;19923;-66
2021/12/20 01:34:12;;;;;;;;;;;;;;;;;;5110980;28;19928;-66
2021/12/20 01:36:39;;;;;;;;;;;;;;;;;;5105921;28;19959;-66
2021/12/20 01:39:06;;;;;;;;;;;;;;;;;;5106314;28;20304;-67
2021/12/20 01:41:33;;;;;;;;;;;;;;;;;;5102825;28;19930;-67
2021/12/20 01:44:00;;;;;;;;;;;;;;;;;;5101909;28;19931;-66
2021/12/20 01:46:27;;;;;;;;;;;;;;;;;;5105680;28;20318;-66
2021/12/20 01:48:55;;;;;;;;;;;;;;;;;;5103458;28;19943;-66
2021/12/20 01:51:45;;;;;;;;;;;;;;;;;;5100198;28;19950;-65
2021/12/20 01:54:12;;;;;;;;;;;;;;;;;;5096582;28;20313;-67
2021/12/20 01:56:42;;;;;;;;;;;;;;;;;;5102868;28;19924;-65
2021/12/20 01:59:09;;;;;;;;;;;;;;;;;;5102279;28;19930;-65
2021/12/20 02:01:35;;;;;;;;;;;;;;;;;;5102757;28;19931;-66
2021/12/20 02:04:06;;;;;;;;;;;;;;;;;;5106021;28;20136;-66
2021/12/20 02:06:35;;;;;;;;;;;;;;;;;;5105671;28;19969;-66
2021/12/20 02:09:02;;;;;;;;;;;;;;;;;;5103900;28;19932;-66
2021/12/20 02:11:29;;;;;;;;;;;;;;;;;;5100442;28;19927;-68
2021/12/20 02:13:56;;;;;;;;;;;;;;;;;;5104137;28;19924;-66
2021/12/20 02:16:23;;;;;;;;;;;;;;;;;;5106806;28;20014;-66
2021/12/20 02:18:50;;;;;;;;;;;;;;;;;;5103374;28;20404;-66
2021/12/20 02:21:16;;;;;;;;;;;;;;;;;;5101437;28;19931;-66
2021/12/20 02:23:43;;;;;;;;;;;;;;;;;;5103026;27;19924;-67
2021/12/20 02:26:12;;;;;;;;;;;;;;;;;;5105094;28;20381;-67
2021/12/20 02:28:42;;;;;;;;;;;;;;;;;;5102670;28;20166;-66
2021/12/20 02:39:35;;;;;;;;;;;;;;;;;;5045162;28;19944;-67
2021/12/20 02:42:02;;;;;;;;;;;;;;;;;;5082040;28;19928;-67
2021/12/20 02:44:29;;;;;;;;;;;;;;;;;;5102789;28;19923;-67
2021/12/20 02:47:13;;;;;;;;;;;;;;;;;;5104274;28;20412;-65
2021/12/20 02:49:41;;;;;;;;;;;;;;;;;;5103389;28;19935;-66
2021/12/20 02:52:08;;;;;;;;;;;;;;;;;;5102027;28;20305;-66
2021/12/20 02:54:35;;;;;;;;;;;;;;;;;;5105144;28;19924;-65
2021/12/20 02:57:02;;;;;;;;;;;;;;;;;;5100665;28;19924;-66
2021/12/20 02:59:29;;;;;;;;;;;;;;;;;;5103230;28;20309;-65
2021/12/20 03:01:56;;;;;;;;;;;;;;;;;;5102314;28;19924;-66
2021/12/20 03:04:23;;;;;;;;;;;;;;;;;;5102472;28;19924;-67
2021/12/20 03:06:50;;;;;;;;;;;;;;;;;;5104351;28;19938;-66
2021/12/20 03:09:18;;;;;;;;;;;;;;;;;;5105181;28;20369;-66
2021/12/20 03:11:45;;;;;;;;;;;;;;;;;;5105881;28;19932;-66
2021/12/20 03:14:17;;;;;;;;;;;;;;;;;;5105723;28;19928;-66
2021/12/20 03:16:44;;;;;;;;;;;;;;;;;;5098469;28;19924;-66
2021/12/20 03:19:11;;;;;;;;;;;;;;;;;;5101946;28;19932;-66
2021/12/20 03:21:38;;;;;;;;;;;;;;;;;;5101484;28;19923;-66
2021/12/20 03:24:05;;;;;;;;;;;;;;;;;;5105078;28;19924;-66
2021/12/20 03:26:32;;;;;;;;;;;;;;;;;;5094612;28;19925;-66
2021/12/20 03:28:59;;;;;;;;;;;;;;;;;;5099748;28;19924;-65
2021/12/20 03:31:26;;;;;;;;;;;;;;;;;;5101419;28;19924;-66
2021/12/20 03:33:53;;;;;;;;;;;;;;;;;;5106207;28;19930;-66
2021/12/20 03:36:20;;;;;;;;;;;;;;;;;;5094908;28;20378;-66
2021/12/20 03:38:46;;;;;;;;;;;;;;;;;;5106934;28;19924;-67
2021/12/20 03:41:13;;;;;;;;;;;;;;;;;;5097060;28;19939;-66
2021/12/20 03:43:40;;;;;;;;;;;;;;;;;;5103111;28;20377;-65
2021/12/20 03:46:07;;;;;;;;;;;;;;;;;;5095325;28;20314;-66
2021/12/20 03:48:34;;;;;;;;;;;;;;;;;;5108677;28;19924;-66
2021/12/20 03:51:01;;;;;;;;;;;;;;;;;;5100191;28;20524;-67
2021/12/20 03:53:28;;;;;;;;;;;;;;;;;;5099849;28;20353;-66
2021/12/20 03:55:55;;;;;;;;;;;;;;;;;;5099492;28;19924;-65
2021/12/20 03:58:22;;;;;;;;;;;;;;;;;;5107766;28;19939;-66
2021/12/20 04:00:49;;;;;;;;;;;;;;;;;;5100845;28;19931;-65
2021/12/20 04:03:16;;;;;;;;;;;;;;;;;;5105263;28;19928;-65
2021/12/20 04:05:43;;;;;;;;;;;;;;;;;;5102429;28;19924;-66
2021/12/20 04:08:10;;;;;;;;;;;;;;;;;;5106483;28;20037;-66
2021/12/20 04:10:37;;;;;;;;;;;;;;;;;;5103517;28;19932;-66
2021/12/20 04:13:04;;;;;;;;;;;;;;;;;;5111797;28;19923;-66
2021/12/20 04:15:31;;;;;;;;;;;;;;;;;;5106963;28;21181;-66
2021/12/20 04:17:58;;;;;;;;;;;;;;;;;;5106949;28;19924;-66
2021/12/20 04:20:25;;;;;;;;;;;;;;;;;;5098916;28;19923;-66
2021/12/20 04:22:52;;;;;;;;;;;;;;;;;;5109495;28;20382;-67
2021/12/20 04:25:19;;;;;;;;;;;;;;;;;;5107820;28;19940;-66
2021/12/20 04:27:45;;;;;;;;;;;;;;;;;;5108718;27;19927;-66
2021/12/20 04:30:13;;;;;;;;;;;;;;;;;;5101844;28;20317;-65
2021/12/20 04:32:40;;;;;;;;;;;;;;;;;;5112204;28;19930;-66
2021/12/20 04:35:07;;;;;;;;;;;;;;;;;;5104067;28;19935;-66
2021/12/20 04:37:34;;;;;;;;;;;;;;;;;;5100459;28;20316;-66
2021/12/20 04:40:05;;;;;;;;;;;;;;;;;;5100953;28;20042;-66
2021/12/20 04:42:32;;;;;;;;;;;;;;;;;;5107565;28;19928;-66
2021/12/20 04:44:59;;;;;;;;;;;;;;;;;;5104428;28;19924;-66
2021/12/20 04:47:26;;;;;;;;;;;;;;;;;;5107026;28;20301;-66
2021/12/20 04:49:53;;;;;;;;;;;;;;;;;;5098113;28;19924;-66
2021/12/20 04:52:20;;;;;;;;;;;;;;;;;;5103936;28;19925;-65
2021/12/20 04:54:47;;;;;;;;;;;;;;;;;;5101524;28;19947;-66
2021/12/20 04:57:14;;;;;;;;;;;;;;;;;;5112067;28;20191;-66
2021/12/20 04:59:41;;;;;;;;;;;;;;;;;;5096949;28;19924;-66
2021/12/20 05:02:08;;;;;;;;;;;;;;;;;;5105733;28;19924;-66
2021/12/20 05:04:35;;;;;;;;;;;;;;;;;;5104998;28;19946;-66
2021/12/20 05:07:02;;;;;;;;;;;;;;;;;;5104996;28;20324;-65
2021/12/20 05:09:36;;;;;;;;;;;;;;;;;;5104564;28;19930;-66
2021/12/20 05:12:11;;;;;;;;;;;;;;;;;;5103336;28;20340;-66
2021/12/20 05:14:38;;;;;;;;;;;;;;;;;;5102366;28;19924;-66
2021/12/20 05:17:05;;;;;;;;;;;;;;;;;;5108090;28;19924;-66
2021/12/20 05:19:32;;;;;;;;;;;;;;;;;;5104445;28;19928;-66
2021/12/20 05:21:58;;;;;;;;;;;;;;;;;;5097866;28;19931;-66
2021/12/20 05:24:25;;;;;;;;;;;;;;;;;;5108339;28;19931;-66
2021/12/20 05:26:52;;;;;;;;;;;;;;;;;;5102954;28;19924;-66
2021/12/20 05:29:19;;;;;;;;;;;;;;;;;;5101597;28;19935;-66
2021/12/20 05:31:47;;;;;;;;;;;;;;;;;;5103059;28;20411;-66
2021/12/20 05:34:14;;;;;;;;;;;;;;;;;;5107367;28;19924;-66
2021/12/20 05:36:41;;;;;;;;;;;;;;;;;;5102490;28;19928;-66
2021/12/20 05:39:07;;;;;;;;;;;;;;;;;;5104081;28;19993;-66
2021/12/20 05:41:34;;;;;;;;;;;;;;;;;;5099247;28;19924;-66
2021/12/20 05:44:01;;;;;;;;;;;;;;;;;;5098723;28;19924;-66
2021/12/20 05:46:28;;;;;;;;;;;;;;;;;;5106180;28;19924;-66
2021/12/20 05:48:55;;;;;;;;;;;;;;;;;;5108922;28;20304;-66
2021/12/20 05:51:22;;;;;;;;;;;;;;;;;;5102972;28;19924;-66
2021/12/20 05:53:49;;;;;;;;;;;;;;;;;;5100242;28;19927;-66
2021/12/20 05:56:16;;;;;;;;;;;;;;;;;;5101367;28;20278;-67
2021/12/20 05:58:43;;;;;;;;;;;;;;;;;;5101518;28;20149;-65
2021/12/20 06:01:10;;;;;;;;;;;;;;;;;;5103155;28;19924;-65
2021/12/20 06:03:37;;;;;;;;;;;;;;;;;;5100735;28;19931;-65
2021/12/20 06:06:04;;;;;;;;;;;;;;;;;;5099854;28;19932;-71
2021/12/20 06:08:30;;;;;;;;;;;;;;;;;;5099862;28;19924;-72
2021/12/20 06:10:57;;;;;;;;;;;;;;;;;;5102807;28;19935;-73
2021/12/20 06:13:24;;;;;;;;;;;;;;;;;;5106710;28;19924;-73
2021/12/20 06:15:51;;;;;;;;;;;;;;;;;;5108214;28;20285;-72
2021/12/20 06:18:18;;;;;;;;;;;;;;;;;;5103262;28;19924;-66
2021/12/20 06:20:45;;;;;;;;;;;;;;;;;;5100762;28;20399;-66
2021/12/20 06:23:12;;;;;;;;;;;;;;;;;;5096184;28;20373;-66
2021/12/20 06:25:39;;;;;;;;;;;;;;;;;;5100104;28;19951;-65
2021/12/20 06:28:06;;;;;;;;;;;;;;;;;;5091385;28;19931;-67
2021/12/20 06:30:33;;;;;;;;;;;;;;;;;;5096870;28;19972;-66
2021/12/20 06:33:00;;;;;;;;;;;;;;;;;;5097527;28;19924;-67
2021/12/20 06:35:27;;;;;;;;;;;;;;;;;;5101119;27;19924;-66
2021/12/20 06:38:00;;;;;;;;;;;;;;;;;;5100710;28;19925;-66
2021/12/20 06:40:27;;;;;;;;;;;;;;;;;;5102490;28;19924;-67
2021/12/20 06:42:54;;;;;;;;;;;;;;;;;;5098842;28;19950;-65
2021/12/20 06:45:21;;;;;;;;;;;;;;;;;;5094727;28;19924;-66
2021/12/20 06:47:48;;;;;;;;;;;;;;;;;;5096691;27;19924;-66
2021/12/20 06:50:14;;;;;;;;;;;;;;;;;;5102220;28;19924;-66
2021/12/20 06:52:41;;;;;;;;;;;;;;;;;;5094604;28;19932;-66
2021/12/20 06:55:09;;;;;;;;;;;;;;;;;;5108088;28;19924;-65
2021/12/20 06:57:36;;;;;;;;;;;;;;;;;;5101595;28;19995;-66
2021/12/20 07:00:03;;;;;;;;;;;;;;;;;;5095965;28;19927;-64
2021/12/20 07:02:32;;;;;;;;;;;;;;;;;;5098350;28;20198;-66
2021/12/20 07:04:59;;;;;;;;;;;;;;;;;;5101771;27;19924;-66
2021/12/20 07:07:26;;;;;;;;;;;;;;;;;;5096413;27;19924;-66
2021/12/20 07:09:53;;;;;;;;;;;;;;;;;;5112297;28;19924;-66
2021/12/20 07:12:20;;;;;;;;;;;;;;;;;;5097349;28;19939;-66
2021/12/20 07:14:49;;;;;;;;;;;;;;;;;;5103095;28;19924;-67
2021/12/20 07:17:16;;;;;;;;;;;;;;;;;;5096325;28;19924;-66
2021/12/20 07:19:43;;;;;;;;;;;;;;;;;;5105059;27;19932;-66
2021/12/20 07:22:10;;;;;;;;;;;;;;;;;;5101140;28;19923;-66
2021/12/20 07:24:37;;;;;;;;;;;;;;;;;;5102163;28;19931;-65
2021/12/20 07:27:04;;;;;;;;;;;;;;;;;;5101484;28;19935;-66
2021/12/20 07:29:31;;;;;;;;;;;;;;;;;;5103137;28;19924;-66
2021/12/20 07:31:58;;;;;;;;;;;;;;;;;;5104810;28;19923;-66
2021/12/20 07:34:25;;;;;;;;;;;;;;;;;;5108499;28;19924;-66
2021/12/20 07:36:53;;;;;;;;;;;;;;;;;;5097431;28;19924;-66
2021/12/20 07:39:20;;;;;;;;;;;;;;;;;;5089716;28;19924;-66
2021/12/20 07:41:48;;;;;;;;;;;;;;;;;;5098475;28;19931;-67
2021/12/20 07:44:15;;;;;;;;;;;;;;;;;;5105433;28;20385;-66
2021/12/20 07:46:42;;;;;;;;;;;;;;;;;;5109017;28;19928;-66
2021/12/20 07:49:09;;;;;;;;;;;;;;;;;;5110008;28;20385;-66
2021/12/20 07:51:36;;;;;;;;;;;;;;;;;;5103425;28;19931;-66
2021/12/20 07:54:03;;;;;;;;;;;;;;;;;;5104170;28;20019;-66
2021/12/20 07:56:30;;;;;;;;;;;;;;;;;;5105291;28;19932;-66
2021/12/20 07:58:57;;;;;;;;;;;;;;;;;;5109918;27;19931;-66
2021/12/20 08:01:24;;;;;;;;;;;;;;;;;;5100944;28;19928;-66
2021/12/20 08:03:51;;;;;;;;;;;;;;;;;;5101824;28;20361;-66
2021/12/20 08:06:18;;;;;;;;;;;;;;;;;;5110057;28;19935;-65
2021/12/20 08:08:45;;;;;;;;;;;;;;;;;;5101016;28;19932;-66
2021/12/20 08:11:11;;;;;;;;;;;;;;;;;;5094910;28;19931;-66
2021/12/20 08:13:44;;;;;;;;;;;;;;;;;;5105865;28;19928;-66
2021/12/20 08:16:11;;;;;;;;;;;;;;;;;;5104459;28;19925;-68
2021/12/20 08:18:38;;;;;;;;;;;;;;;;;;5103001;28;19930;-66
2021/12/20 08:21:05;;;;;;;;;;;;;;;;;;5098328;28;19923;-65
2021/12/20 08:23:32;;;;;;;;;;;;;;;;;;5110808;28;19923;-65
2021/12/20 08:25:59;;;;;;;;;;;;;;;;;;5108040;28;19931;-66
2021/12/20 08:28:27;;;;;;;;;;;;;;;;;;5107993;28;19924;-66
2021/12/20 08:30:53;;;;;;;;;;;;;;;;;;5108484;28;19928;-66
2021/12/20 08:33:20;;;;;;;;;;;;;;;;;;5110351;27;19924;-67
2021/12/20 08:35:49;;;;;;;;;;;;;;;;;;5105292;28;19930;-72
2021/12/20 08:38:16;;;;;;;;;;;;;;;;;;5101560;28;19964;-72
2021/12/20 08:40:43;;;;;;;;;;;;;;;;;;5102181;28;19928;-72
2021/12/20 08:43:10;;;;;;;;;;;;;;;;;;5114455;27;19927;-72
2021/12/20 08:45:37;;;;;;;;;;;;;;;;;;5103898;28;19931;-72
2021/12/20 08:48:04;;;;;;;;;;;;;;;;;;5111223;28;19928;-74
2021/12/20 08:50:31;;;;;;;;;;;;;;;;;;5097222;28;19931;-76
2021/12/20 08:52:58;;;;;;;;;;;;;;;;;;5106183;28;19972;-76
2021/12/20 08:55:25;;;;;;;;;;;;;;;;;;5091888;28;20385;-76
2021/12/20 08:57:52;;;;;;;;;;;;;;;;;;5099435;27;19931;-75
2021/12/20 09:00:18;;;;;;;;;;;;;;;;;;5099029;28;19924;-73
2021/12/20 09:02:45;;;;;;;;;;;;;;;;;;5109420;27;19946;-73
2021/12/20 09:05:12;;;;;;;;;;;;;;;;;;5109212;27;19931;-76
2021/12/20 09:07:41;;;;;;;;;;;;;;;;;;5101565;27;19931;-74
2021/12/20 09:10:08;;;;;;;;;;;;;;;;;;5099282;28;20327;-74
2021/12/20 09:12:35;;;;;;;;;;;;;;;;;;5103339;28;19930;-74
2021/12/20 09:15:02;;;;;;;;;;;;;;;;;;5102941;28;19931;-74
2021/12/20 09:17:29;;;;;;;;;;;;;;;;;;5100894;28;19924;-74
2021/12/20 09:19:56;;;;;;;;;;;;;;;;;;5098558;28;19924;-73
2021/12/20 09:22:26;;;;;;;;;;;;;;;;;;5101750;28;19924;-73
2021/12/20 09:24:53;;;;;;;;;;;;;;;;;;5111598;28;20409;-76
2021/12/20 09:27:20;;;;;;;;;;;;;;;;;;5107757;28;19927;-76
2021/12/20 09:29:47;;;;;;;;;;;;;;;;;;5105300;28;20289;-76
2021/12/20 09:32:14;;;;;;;;;;;;;;;;;;5101859;28;20023;-77
2021/12/20 09:34:41;;;;;;;;;;;;;;;;;;5107024;28;19938;-76
2021/12/20 09:37:08;;;;;;;;;;;;;;;;;;5106896;28;20393;-76
2021/12/20 09:39:37;;;;;;;;;;;;;;;;;;5099258;28;19924;-76
2021/12/20 09:42:04;;;;;;;;;;;;;;;;;;5095625;28;20284;-76
2021/12/20 09:44:31;;;;;;;;;;;;;;;;;;5109437;28;19923;-77
2021/12/20 09:46:58;;;;;;;;;;;;;;;;;;5103878;28;19923;-76
2021/12/20 09:49:25;;;;;;;;;;;;;;;;;;5105483;28;19924;-77
2021/12/20 09:51:52;;;;;;;;;;;;;;;;;;5105346;28;19951;-76
2021/12/20 09:54:19;;;;;;;;;;;;;;;;;;5101167;28;20348;-75
2021/12/20 09:56:46;;;;;;;;;;;;;;;;;;5105503;28;19924;-76
2021/12/20 09:59:14;;;;;;;;;;;;;;;;;;5106231;27;19932;-74
2021/12/20 10:01:41;;;;;;;;;;;;;;;;;;5098213;28;19990;-76
2021/12/20 10:04:08;;;;;;;;;;;;;;;;;;5102488;28;19924;-74
2021/12/20 10:06:35;;;;;;;;;;;;;;;;;;5097056;28;19924;-74
2021/12/20 10:09:10;;;;;;;;;;;;;;;;;;5098135;28;19924;-74
2021/12/20 10:11:38;;;;;;;;;;;;;;;;;;5095578;28;19932;-75
2021/12/20 10:14:04;;;;;;;;;;;;;;;;;;5103415;28;19928;-74
2021/12/20 10:16:31;;;;;;;;;;;;;;;;;;5095498;28;19943;-75
2021/12/20 10:18:59;;;;;;;;;;;;;;;;;;5103896;28;19924;-75
2021/12/20 10:21:26;;;;;;;;;;;;;;;;;;5102046;28;19982;-73
2021/12/20 10:23:54;;;;;;;;;;;;;;;;;;5106848;28;19932;-75
2021/12/20 10:26:21;;;;;;;;;;;;;;;;;;5102082;28;19932;-75
2021/12/20 10:28:48;;;;;;;;;;;;;;;;;;5102163;28;19931;-75
2021/12/20 10:31:15;;;;;;;;;;;;;;;;;;5097955;28;19924;-75
2021/12/20 10:33:42;;;;;;;;;;;;;;;;;;5106477;28;20309;-75
2021/12/20 10:36:10;;;;;;;;;;;;;;;;;;5110361;27;19927;-75
2021/12/20 10:38:38;;;;;;;;;;;;;;;;;;5106133;28;19930;-74
2021/12/20 10:41:05;;;;;;;;;;;;;;;;;;5103008;28;20292;-75
2021/12/20 10:43:35;;;;;;;;;;;;;;;;;;5100929;28;19931;-75
2021/12/20 10:46:02;;;;;;;;;;;;;;;;;;5097939;28;20017;-74
2021/12/20 10:48:29;;;;;;;;;;;;;;;;;;5102171;28;20389;-73
2021/12/20 10:50:56;;;;;;;;;;;;;;;;;;5106321;27;19931;-75
2021/12/20 10:53:23;;;;;;;;;;;;;;;;;;5105018;28;19923;-73
2021/12/20 10:55:51;;;;;;;;;;;;;;;;;;5098943;28;20296;-76
2021/12/20 10:58:19;;;;;;;;;;;;;;;;;;5099381;27;19931;-76
2021/12/20 11:00:46;;;;;;;;;;;;;;;;;;5098753;28;20296;-74
2021/12/20 11:11:25;;;;;;;;;;;;;;;;;;5096909;28;20387;-76
2021/12/20 11:13:52;;;;;;;;;;;;;;;;;;5092088;28;20309;-75
2021/12/20 11:16:19;;;;;;;;;;;;;;;;;;5096380;28;20289;-77
2021/12/20 11:18:46;;;;;;;;;;;;;;;;;;5096968;28;19954;-78
2021/12/20 11:21:14;;;;;;;;;;;;;;;;;;5099441;28;19978;-78
2021/12/20 11:23:41;;;;;;;;;;;;;;;;;;5096661;28;19927;-77
2021/12/20 11:26:08;;;;;;;;;;;;;;;;;;5095873;28;19928;-78
2021/12/20 11:28:35;;;;;;;;;;;;;;;;;;5098944;28;19928;-78
2021/12/20 11:31:03;;;;;;;;;;;;;;;;;;5100959;28;19923;-77
2021/12/20 11:33:30;;;;;;;;;;;;;;;;;;5093686;28;19924;-77
2021/12/20 11:35:57;;;;;;;;;;;;;;;;;;5100830;28;20629;-75
2021/12/20 11:38:24;;;;;;;;;;;;;;;;;;5094786;28;19935;-76
2021/12/20 11:40:51;;;;;;;;;;;;;;;;;;5099947;28;19923;-75
2021/12/20 11:43:18;;;;;;;;;;;;;;;;;;5088655;28;19928;-73
2021/12/20 11:45:45;;;;;;;;;;;;;;;;;;5096244;28;19928;-75
2021/12/20 11:48:13;;;;;;;;;;;;;;;;;;5100338;28;19931;-74
2021/12/20 11:50:40;;;;;;;;;;;;;;;;;;5093082;28;19981;-76
2021/12/20 11:53:07;;;;;;;;;;;;;;;;;;5098037;28;19946;-74
2021/12/20 11:55:34;;;;;;;;;;;;;;;;;;5098344;28;19924;-74
2021/12/20 11:58:01;;;;;;;;;;;;;;;;;;5094710;28;19947;-74
2021/12/20 12:00:28;;;;;;;;;;;;;;;;;;5091888;28;19931;-76
2021/12/20 12:02:54;;;;;;;;;;;;;;;;;;5090854;28;19928;-75
2021/12/20 12:05:21;;;;;;;;;;;;;;;;;;5102797;28;20373;-75
2021/12/20 12:07:48;;;;;;;;;;;;;;;;;;5098806;28;19924;-76
2021/12/20 12:10:15;;;;;;;;;;;;;;;;;;5096409;28;19924;-76
2021/12/20 12:12:43;;;;;;;;;;;;;;;;;;5097563;28;19939;-77
2021/12/20 12:15:10;;;;;;;;;;;;;;;;;;5097953;28;20019;-77
2021/12/20 12:17:37;;;;;;;;;;;;;;;;;;5098646;28;19932;-77
2021/12/20 12:20:04;;;;;;;;;;;;;;;;;;5099526;28;19924;-76
2021/12/20 12:22:31;;;;;;;;;;;;;;;;;;5098047;28;19928;-77
2021/12/20 12:24:58;;;;;;;;;;;;;;;;;;5098718;28;19923;-77
2021/12/20 12:27:25;;;;;;;;;;;;;;;;;;5100327;28;19927;-77
2021/12/20 12:29:52;;;;;;;;;;;;;;;;;;5106876;28;19924;-77
2021/12/20 12:32:19;;;;;;;;;;;;;;;;;;5102138;28;19935;-77
2021/12/20 12:34:47;;;;;;;;;;;;;;;;;;5095648;28;20032;-77
2021/12/20 12:37:14;;;;;;;;;;;;;;;;;;5102215;28;19924;-77
2021/12/20 12:39:40;;;;;;;;;;;;;;;;;;5104452;28;19950;-76
2021/12/20 12:42:08;;;;;;;;;;;;;;;;;;5100277;28;20023;-77
2021/12/20 12:44:35;;;;;;;;;;;;;;;;;;5094374;28;20373;-77
2021/12/20 12:47:03;;;;;;;;;;;;;;;;;;5101127;28;19924;-77
2021/12/20 12:49:31;;;;;;;;;;;;;;;;;;5103595;28;20438;-77
2021/12/20 12:51:58;;;;;;;;;;;;;;;;;;5100026;28;19924;-76
2021/12/20 12:54:25;;;;;;;;;;;;;;;;;;5101872;28;19928;-77
2021/12/20 12:56:52;;;;;;;;;;;;;;;;;;5102628;28;19924;-76
2021/12/20 12:59:19;;;;;;;;;;;;;;;;;;5102213;28;20396;-76
2021/12/20 13:01:46;;;;;;;;;;;;;;;;;;5098355;28;20369;-76
2021/12/20 13:04:13;;;;;;;;;;;;;;;;;;5102387;28;19979;-76
2021/12/20 13:06:40;;;;;;;;;;;;;;;;;;5099373;28;19931;-77
2021/12/20 13:09:07;;;;;;;;;;;;;;;;;;5101481;28;20404;-77
2021/12/20 13:11:34;;;;;;;;;;;;;;;;;;5098706;28;19924;-78
2021/12/20 13:14:05;;;;;;;;;;;;;;;;;;5098995;28;19930;-76
2021/12/20 13:16:32;;;;;;;;;;;;;;;;;;5097447;28;20296;-76
2021/12/20 13:18:59;;;;;;;;;;;;;;;;;;5100460;28;19924;-76
2021/12/20 13:21:47;;;;;;;;;;;;;;;;;;5104443;28;20321;-77
2021/12/20 13:24:13;;;;;;;;;;;;;;;;;;5101710;28;20392;-76
2021/12/20 13:26:40;;;;;;;;;;;;;;;;;;5102596;27;19950;-76
2021/12/20 13:29:07;;;;;;;;;;;;;;;;;;5098295;27;19924;-77
2021/12/20 13:31:37;;;;;;;;;;;;;;;;;;5100247;28;19932;-80
2021/12/20 13:34:11;;;;;;;;;;;;;;;;;;5102854;28;20018;-79
2021/12/20 13:36:38;;;;;;;;;;;;;;;;;;5098758;28;19967;-79
2021/12/20 13:39:05;;;;;;;;;;;;;;;;;;5104151;28;20373;-77
2021/12/20 13:41:31;;;;;;;;;;;;;;;;;;5100273;28;19924;-79
2021/12/20 13:44:01;;;;;;;;;;;;;;;;;;5099303;28;19932;-78
2021/12/20 13:46:38;;;;;;;;;;;;;;;;;;5098516;27;20007;-77
2021/12/20 13:49:05;;;;;;;;;;;;;;;;;;5101855;28;19934;-78
2021/12/20 13:51:32;;;;;;;;;;;;;;;;;;5098059;28;19985;-79
2021/12/20 13:53:59;;;;;;;;;;;;;;;;;;5104771;27;19934;-77
2021/12/20 13:56:26;;;;;;;;;;;;;;;;;;5099239;28;20408;-77
2021/12/20 13:58:53;;;;;;;;;;;;;;;;;;5097524;28;19930;-77
2021/12/20 14:01:20;;;;;;;;;;;;;;;;;;5100735;27;19930;-77
2021/12/20 14:03:47;;;;;;;;;;;;;;;;;;5101296;27;19930;-78
2021/12/20 14:06:14;;;;;;;;;;;;;;;;;;5102591;28;19928;-78
2021/12/20 14:08:41;;;;;;;;;;;;;;;;;;5101105;28;19931;-78
2021/12/20 14:11:08;;;;;;;;;;;;;;;;;;5097044;28;20051;-80
2021/12/20 14:13:35;;;;;;;;;;;;;;;;;;5088397;27;19938;-76
2021/12/20 14:16:02;;;;;;;;;;;;;;;;;;5099147;28;20278;-74
2021/12/20 14:18:29;;;;;;;;;;;;;;;;;;5099475;28;19931;-75
2021/12/20 14:20:56;;;;;;;;;;;;;;;;;;5100753;28;19934;-77
2021/12/20 14:23:24;;;;;;;;;;;;;;;;;;5094012;28;19925;-75
2021/12/20 14:25:51;;;;;;;;;;;;;;;;;;5099691;28;19934;-78
2021/12/20 14:28:18;;;;;;;;;;;;;;;;;;5101509;28;20006;-77
2021/12/20 14:30:45;;;;;;;;;;;;;;;;;;5105232;28;19928;-76
2021/12/20 14:33:12;;;;;;;;;;;;;;;;;;5100839;28;19963;-75
2021/12/20 14:35:39;;;;;;;;;;;;;;;;;;5096920;28;20285;-74
2021/12/20 14:38:06;;;;;;;;;;;;;;;;;;5106141;28;20566;-77
2021/12/20 14:40:33;;;;;;;;;;;;;;;;;;5095277;28;19930;-75
2021/12/20 14:43:00;;;;;;;;;;;;;;;;;;5096695;28;19947;-74
2021/12/20 14:45:27;;;;;;;;;;;;;;;;;;5093758;28;19930;-76
2021/12/20 14:47:53;;;;;;;;;;;;;;;;;;5098965;28;19924;-74
2021/12/20 14:50:25;;;;;;;;;;;;;;;;;;5099751;28;19924;-73
2021/12/20 14:52:52;;;;;;;;;;;;;;;;;;5101880;28;20400;-74
2021/12/20 14:55:20;;;;;;;;;;;;;;;;;;5096721;28;19967;-73
2021/12/20 14:57:47;;;;;;;;;;;;;;;;;;5094720;27;20019;-75
2021/12/20 15:00:14;;;;;;;;;;;;;;;;;;5099344;28;20420;-75
2021/12/20 15:02:43;;;;;;;;;;;;;;;;;;5096848;28;19931;-74
2021/12/20 15:05:11;;;;;;;;;;;;;;;;;;5094381;28;19923;-75
2021/12/20 15:07:38;;;;;;;;;;;;;;;;;;5101341;28;19932;-74
2021/12/20 15:10:05;;;;;;;;;;;;;;;;;;5101116;28;19949;-73
2021/12/20 15:12:32;;;;;;;;;;;;;;;;;;5094683;28;19924;-73
2021/12/20 15:14:59;;;;;;;;;;;;;;;;;;5094591;28;19927;-75
2021/12/20 15:17:26;;;;;;;;;;;;;;;;;;5098981;28;20023;-75
2021/12/20 15:19:53;;;;;;;;;;;;;;;;;;5095022;28;20029;-73
2021/12/20 15:22:20;;;;;;;;;;;;;;;;;;5094769;28;19967;-73
2021/12/20 15:24:47;;;;;;;;;;;;;;;;;;5100267;28;19924;-72
2021/12/20 15:27:14;;;;;;;;;;;;;;;;;;5102930;28;20232;-73
2021/12/20 15:29:41;;;;;;;;;;;;;;;;;;5100782;28;20019;-74
2021/12/20 15:32:08;;;;;;;;;;;;;;;;;;5101924;28;19935;-76
2021/12/20 15:34:35;;;;;;;;;;;;;;;;;;5095512;28;20316;-76
2021/12/20 15:37:02;;;;;;;;;;;;;;;;;;5098328;28;20016;-75
2021/12/20 15:39:29;;;;;;;;;;;;;;;;;;5095551;28;19924;-74
2021/12/20 15:42:00;;;;;;;;;;;;;;;;;;5096880;28;20047;-74
2021/12/20 15:44:27;;;;;;;;;;;;;;;;;;5098033;28;20392;-75
2021/12/20 15:46:54;;;;;;;;;;;;;;;;;;5098209;28;19939;-76
2021/12/20 15:49:21;;;;;;;;;;;;;;;;;;5097321;28;19940;-75
2021/12/20 15:51:48;;;;;;;;;;;;;;;;;;5093044;28;20296;-76
2021/12/20 15:54:15;;;;;;;;;;;;;;;;;;5099793;28;19930;-76
2021/12/20 15:56:42;;;;;;;;;;;;;;;;;;5097080;28;19935;-75
2021/12/20 15:59:09;;;;;;;;;;;;;;;;;;5093070;28;19946;-75
2021/12/20 16:01:36;;;;;;;;;;;;;;;;;;5093834;28;19967;-74
2021/12/20 16:04:03;;;;;;;;;;;;;;;;;;5095815;28;19923;-74
2021/12/20 16:06:30;;;;;;;;;;;;;;;;;;5098921;28;19923;-75
2021/12/20 16:08:57;;;;;;;;;;;;;;;;;;5100555;28;20211;-75
2021/12/20 16:11:24;;;;;;;;;;;;;;;;;;5100514;28;19927;-75
2021/12/20 16:13:51;;;;;;;;;;;;;;;;;;5103018;28;19924;-76
2021/12/20 16:16:18;;;;;;;;;;;;;;;;;;5099576;28;20015;-76
2021/12/20 16:18:45;;;;;;;;;;;;;;;;;;5105252;28;19954;-76
2021/12/20 16:21:12;;;;;;;;;;;;;;;;;;5103721;28;19924;-75
2021/12/20 16:23:39;;;;;;;;;;;;;;;;;;5096745;28;20258;-75
2021/12/20 16:26:06;;;;;;;;;;;;;;;;;;5105403;28;19930;-73
2021/12/20 16:28:33;;;;;;;;;;;;;;;;;;5100183;28;19924;-74
2021/12/20 16:31:00;;;;;;;;;;;;;;;;;;5101136;28;19924;-74
2021/12/20 16:33:32;;;;;;;;;;;;;;;;;;5100665;28;19947;-74
2021/12/20 16:36:00;;;;;;;;;;;;;;;;;;5099442;28;20274;-75
2021/12/20 16:38:27;;;;;;;;;;;;;;;;;;5098365;28;19925;-77
2021/12/20 16:40:54;;;;;;;;;;;;;;;;;;5095343;28;19924;-76
2021/12/20 16:43:21;;;;;;;;;;;;;;;;;;5102720;28;19930;-76
2021/12/20 16:45:56;;;;;;;;;;;;;;;;;;5092880;28;19934;-82
2021/12/20 16:48:25;;;;;;;;;;;;;;;;;;5088600;28;19924;-75
2021/12/20 16:50:52;;;;;;;;;;;;;;;;;;5099195;28;19977;-74
2021/12/20 16:53:19;;;;;;;;;;;;;;;;;;5106556;27;20297;-75
2021/12/20 16:55:46;;;;;;;;;;;;;;;;;;5107057;28;19924;-74
2021/12/20 16:58:13;;;;;;;;;;;;;;;;;;5093640;28;19931;-73
2021/12/20 17:00:40;;;;;;;;;;;;;;;;;;5097484;28;19932;-74
2021/12/20 17:03:09;;;;;;;;;;;;;;;;;;5094354;28;20034;-73
2021/12/20 17:05:46;;;;;;;;;;;;;;;;;;5098873;28;19977;-75
2021/12/20 17:08:13;;;;;;;;;;;;;;;;;;5087792;28;19931;-76